sensor_id;sensor_type;location;lat;lon;timestamp;temperature;humidity
71843;DHT22;59691;-36.632;-64.320;2023-03-14T00:01:46;25.50;80.60
71843;DHT22;59691;-36.632;-64.320;2023-03-14T00:04:13;25.50;80.70
71843;DHT22;59691;-36.632;-64.320;2023-03-14T00:06:39;25.50;80.90
71843;DHT22;59691;-36.632;-64.320;2023-03-14T00:09:05;25.50;81.00
71843;DHT22;59691;-36.632;-64.320;2023-03-14T00:11:32;25.50;81.30
71843;DHT22;59691;-36.632;-64.320;2023-03-14T00:13:58;25.50;81.40
71843;DHT22;59691;-36.632;-64.320;2023-03-14T00:16:25;25.50;81.50
71843;DHT22;59691;-36.632;-64.320;2023-03-14T00:18:52;25.50;81.50
71843;DHT22;59691;-36.632;-64.320;2023-03-14T00:21:18;25.50;81.50
71843;DHT22;59691;-36.632;-64.320;2023-03-14T00:23:45;25.50;81.60
71843;DHT22;59691;-36.632;-64.320;2023-03-14T00:26:12;25.50;81.60
71843;DHT22;59691;-36.632;-64.320;2023-03-14T00:28:39;25.50;81.70
71843;DHT22;59691;-36.632;-64.320;2023-03-14T00:31:07;25.50;81.70
71843;DHT22;59691;-36.632;-64.320;2023-03-14T00:33:34;25.50;81.80
71843;DHT22;59691;-36.632;-64.320;2023-03-14T00:36:05;25.50;81.70
71843;DHT22;59691;-36.632;-64.320;2023-03-14T00:38:32;25.50;81.70
71843;DHT22;59691;-36.632;-64.320;2023-03-14T00:40:58;25.50;81.60
71843;DHT22;59691;-36.632;-64.320;2023-03-14T00:43:25;25.50;81.60
71843;DHT22;59691;-36.632;-64.320;2023-03-14T00:45:51;25.50;81.50
71843;DHT22;59691;-36.632;-64.320;2023-03-14T00:48:18;25.50;81.50
71843;DHT22;59691;-36.632;-64.320;2023-03-14T00:50:45;25.50;81.40
71843;DHT22;59691;-36.632;-64.320;2023-03-14T00:53:12;25.40;81.40
71843;DHT22;59691;-36.632;-64.320;2023-03-14T00:55:39;25.50;81.50
71843;DHT22;59691;-36.632;-64.320;2023-03-14T00:58:05;25.40;81.40
71843;DHT22;59691;-36.632;-64.320;2023-03-14T01:00:32;25.40;81.40
71843;DHT22;59691;-36.632;-64.320;2023-03-14T01:02:58;25.40;81.40
71843;DHT22;59691;-36.632;-64.320;2023-03-14T01:05:25;25.40;81.40
71843;DHT22;59691;-36.632;-64.320;2023-03-14T01:07:51;25.50;81.50
71843;DHT22;59691;-36.632;-64.320;2023-03-14T01:10:18;25.40;81.50
71843;DHT22;59691;-36.632;-64.320;2023-03-14T01:12:44;25.50;81.50
71843;DHT22;59691;-36.632;-64.320;2023-03-14T01:15:10;25.50;81.60
71843;DHT22;59691;-36.632;-64.320;2023-03-14T01:17:37;25.40;81.50
71843;DHT22;59691;-36.632;-64.320;2023-03-14T01:20:05;25.40;81.50
71843;DHT22;59691;-36.632;-64.320;2023-03-14T01:22:35;25.40;81.50
71843;DHT22;59691;-36.632;-64.320;2023-03-14T01:25:01;25.40;81.50
71843;DHT22;59691;-36.632;-64.320;2023-03-14T01:27:28;25.40;81.50
71843;DHT22;59691;-36.632;-64.320;2023-03-14T01:29:54;25.40;81.50
71843;DHT22;59691;-36.632;-64.320;2023-03-14T01:32:20;25.40;81.50
71843;DHT22;59691;-36.632;-64.320;2023-03-14T01:34:47;25.40;81.50
71843;DHT22;59691;-36.632;-64.320;2023-03-14T01:37:13;25.40;81.60
71843;DHT22;59691;-36.632;-64.320;2023-03-14T01:39:40;25.40;81.60
71843;DHT22;59691;-36.632;-64.320;2023-03-14T01:42:06;25.40;81.70
71843;DHT22;59691;-36.632;-64.320;2023-03-14T01:47:17;25.40;81.70
71843;DHT22;59691;-36.632;-64.320;2023-03-14T01:49:43;25.40;81.70
71843;DHT22;59691;-36.632;-64.320;2023-03-14T01:55:25;25.40;81.90
71843;DHT22;59691;-36.632;-64.320;2023-03-14T01:57:53;25.40;81.90
71843;DHT22;59691;-36.632;-64.320;2023-03-14T02:00:21;25.40;81.90
71843;DHT22;59691;-36.632;-64.320;2023-03-14T02:02:48;25.40;82.00
71843;DHT22;59691;-36.632;-64.320;2023-03-14T02:05:17;25.40;82.10
71843;DHT22;59691;-36.632;-64.320;2023-03-14T02:10:14;25.40;82.20
71843;DHT22;59691;-36.632;-64.320;2023-03-14T02:12:41;25.40;82.20
71843;DHT22;59691;-36.632;-64.320;2023-03-14T02:15:07;25.40;82.20
71843;DHT22;59691;-36.632;-64.320;2023-03-14T02:17:34;25.30;82.30
71843;DHT22;59691;-36.632;-64.320;2023-03-14T02:22:33;25.30;82.30
71843;DHT22;59691;-36.632;-64.320;2023-03-14T02:27:29;25.30;82.30
71843;DHT22;59691;-36.632;-64.320;2023-03-14T02:30:05;25.30;82.30
71843;DHT22;59691;-36.632;-64.320;2023-03-14T02:32:32;25.30;82.30
71843;DHT22;59691;-36.632;-64.320;2023-03-14T02:35:00;25.30;82.30
71843;DHT22;59691;-36.632;-64.320;2023-03-14T02:40:15;25.30;82.30
71843;DHT22;59691;-36.632;-64.320;2023-03-14T02:42:41;25.30;82.30
71843;DHT22;59691;-36.632;-64.320;2023-03-14T02:47:34;25.30;82.30
71843;DHT22;59691;-36.632;-64.320;2023-03-14T02:50:05;25.30;82.30
71843;DHT22;59691;-36.632;-64.320;2023-03-14T02:52:32;25.30;82.30
71843;DHT22;59691;-36.632;-64.320;2023-03-14T02:54:58;25.30;82.40
71843;DHT22;59691;-36.632;-64.320;2023-03-14T02:57:25;25.30;82.30
71843;DHT22;59691;-36.632;-64.320;2023-03-14T02:59:51;25.30;82.30
71843;DHT22;59691;-36.632;-64.320;2023-03-14T03:02:17;25.30;82.30
71843;DHT22;59691;-36.632;-64.320;2023-03-14T03:04:44;25.20;82.20
71843;DHT22;59691;-36.632;-64.320;2023-03-14T03:07:10;25.30;82.30
71843;DHT22;59691;-36.632;-64.320;2023-03-14T03:09:36;25.20;82.20
71843;DHT22;59691;-36.632;-64.320;2023-03-14T03:12:03;25.20;82.20
71843;DHT22;59691;-36.632;-64.320;2023-03-14T03:14:29;25.20;82.20
71843;DHT22;59691;-36.632;-64.320;2023-03-14T03:16:56;25.20;82.20
71843;DHT22;59691;-36.632;-64.320;2023-03-14T03:19:22;25.30;82.30
71843;DHT22;59691;-36.632;-64.320;2023-03-14T03:21:48;25.20;82.20
71843;DHT22;59691;-36.632;-64.320;2023-03-14T03:24:15;25.20;82.20
71843;DHT22;59691;-36.632;-64.320;2023-03-14T03:26:41;25.20;82.10
71843;DHT22;59691;-36.632;-64.320;2023-03-14T03:29:07;25.20;82.20
71843;DHT22;59691;-36.632;-64.320;2023-03-14T03:31:36;25.20;82.20
71843;DHT22;59691;-36.632;-64.320;2023-03-14T03:34:02;25.20;82.20
71843;DHT22;59691;-36.632;-64.320;2023-03-14T03:36:28;25.20;82.20
71843;DHT22;59691;-36.632;-64.320;2023-03-14T03:38:55;25.20;82.20
71843;DHT22;59691;-36.632;-64.320;2023-03-14T03:41:21;25.20;82.30
71843;DHT22;59691;-36.632;-64.320;2023-03-14T03:43:47;25.20;82.30
71843;DHT22;59691;-36.632;-64.320;2023-03-14T03:46:14;25.20;82.40
71843;DHT22;59691;-36.632;-64.320;2023-03-14T03:48:41;25.20;82.40
71843;DHT22;59691;-36.632;-64.320;2023-03-14T03:51:07;25.20;82.50
71843;DHT22;59691;-36.632;-64.320;2023-03-14T03:53:38;25.20;82.50
71843;DHT22;59691;-36.632;-64.320;2023-03-14T03:56:04;25.20;82.50
71843;DHT22;59691;-36.632;-64.320;2023-03-14T03:58:31;25.20;82.50
71843;DHT22;59691;-36.632;-64.320;2023-03-14T04:00:57;25.20;82.50
71843;DHT22;59691;-36.632;-64.320;2023-03-14T04:03:23;25.20;82.50
71843;DHT22;59691;-36.632;-64.320;2023-03-14T04:06:00;25.20;82.50
71843;DHT22;59691;-36.632;-64.320;2023-03-14T04:08:26;25.20;82.50
71843;DHT22;59691;-36.632;-64.320;2023-03-14T04:10:59;25.20;82.50
71843;DHT22;59691;-36.632;-64.320;2023-03-14T04:13:26;25.20;82.50
71843;DHT22;59691;-36.632;-64.320;2023-03-14T04:15:53;25.20;82.60
71843;DHT22;59691;-36.632;-64.320;2023-03-14T04:18:20;25.20;82.60
71843;DHT22;59691;-36.632;-64.320;2023-03-14T04:20:50;25.20;82.70
71843;DHT22;59691;-36.632;-64.320;2023-03-14T04:23:17;25.10;82.60
71843;DHT22;59691;-36.632;-64.320;2023-03-14T04:25:43;25.10;82.70
71843;DHT22;59691;-36.632;-64.320;2023-03-14T04:28:09;25.20;82.80
71843;DHT22;59691;-36.632;-64.320;2023-03-14T04:30:36;25.10;82.80
71843;DHT22;59691;-36.632;-64.320;2023-03-14T04:33:02;25.20;82.90
71843;DHT22;59691;-36.632;-64.320;2023-03-14T04:35:30;25.10;83.00
71843;DHT22;59691;-36.632;-64.320;2023-03-14T04:37:57;25.10;83.00
71843;DHT22;59691;-36.632;-64.320;2023-03-14T04:40:25;25.10;83.00
71843;DHT22;59691;-36.632;-64.320;2023-03-14T04:42:51;25.20;83.10
71843;DHT22;59691;-36.632;-64.320;2023-03-14T04:45:17;25.10;83.10
71843;DHT22;59691;-36.632;-64.320;2023-03-14T04:47:44;25.10;83.10
71843;DHT22;59691;-36.632;-64.320;2023-03-14T04:50:10;25.10;83.20
71843;DHT22;59691;-36.632;-64.320;2023-03-14T04:52:36;25.10;83.20
71843;DHT22;59691;-36.632;-64.320;2023-03-14T04:55:03;25.10;83.20
71843;DHT22;59691;-36.632;-64.320;2023-03-14T04:57:29;25.10;83.30
71843;DHT22;59691;-36.632;-64.320;2023-03-14T04:59:56;25.10;83.30
71843;DHT22;59691;-36.632;-64.320;2023-03-14T05:02:22;25.10;83.40
71843;DHT22;59691;-36.632;-64.320;2023-03-14T05:04:48;25.10;83.40
71843;DHT22;59691;-36.632;-64.320;2023-03-14T05:07:15;25.00;83.40
71843;DHT22;59691;-36.632;-64.320;2023-03-14T05:09:41;25.10;83.40
71843;DHT22;59691;-36.632;-64.320;2023-03-14T05:12:07;25.10;83.40
71843;DHT22;59691;-36.632;-64.320;2023-03-14T05:14:34;25.10;83.40
71843;DHT22;59691;-36.632;-64.320;2023-03-14T05:17:00;25.00;83.40
71843;DHT22;59691;-36.632;-64.320;2023-03-14T05:19:26;25.00;83.40
71843;DHT22;59691;-36.632;-64.320;2023-03-14T05:21:53;25.00;83.40
71843;DHT22;59691;-36.632;-64.320;2023-03-14T05:24:19;25.10;83.50
71843;DHT22;59691;-36.632;-64.320;2023-03-14T05:26:45;25.00;83.50
71843;DHT22;59691;-36.632;-64.320;2023-03-14T05:29:12;25.00;83.40
71843;DHT22;59691;-36.632;-64.320;2023-03-14T05:31:38;25.00;83.50
71843;DHT22;59691;-36.632;-64.320;2023-03-14T05:34:04;25.00;83.50
71843;DHT22;59691;-36.632;-64.320;2023-03-14T05:36:31;25.00;83.50
71843;DHT22;59691;-36.632;-64.320;2023-03-14T05:38:57;25.00;83.50
71843;DHT22;59691;-36.632;-64.320;2023-03-14T05:41:23;25.00;83.60
71843;DHT22;59691;-36.632;-64.320;2023-03-14T05:43:50;25.00;83.60
71843;DHT22;59691;-36.632;-64.320;2023-03-14T05:46:16;25.00;83.60
71843;DHT22;59691;-36.632;-64.320;2023-03-14T05:48:42;25.00;83.60
71843;DHT22;59691;-36.632;-64.320;2023-03-14T05:51:09;25.00;83.60
71843;DHT22;59691;-36.632;-64.320;2023-03-14T05:53:35;25.00;83.70
71843;DHT22;59691;-36.632;-64.320;2023-03-14T05:56:01;25.00;83.80
71843;DHT22;59691;-36.632;-64.320;2023-03-14T05:58:28;25.00;83.80
71843;DHT22;59691;-36.632;-64.320;2023-03-14T06:00:54;25.00;83.90
71843;DHT22;59691;-36.632;-64.320;2023-03-14T06:03:20;25.00;84.00
71843;DHT22;59691;-36.632;-64.320;2023-03-14T06:05:49;25.00;84.10
71843;DHT22;59691;-36.632;-64.320;2023-03-14T06:08:15;25.00;84.20
71843;DHT22;59691;-36.632;-64.320;2023-03-14T06:10:41;25.00;84.20
71843;DHT22;59691;-36.632;-64.320;2023-03-14T06:13:08;25.00;84.30
71843;DHT22;59691;-36.632;-64.320;2023-03-14T06:15:34;25.00;84.50
71843;DHT22;59691;-36.632;-64.320;2023-03-14T06:18:01;25.00;84.50
71843;DHT22;59691;-36.632;-64.320;2023-03-14T06:20:27;25.00;84.60
71843;DHT22;59691;-36.632;-64.320;2023-03-14T06:22:54;25.00;84.70
71843;DHT22;59691;-36.632;-64.320;2023-03-14T06:25:20;25.00;84.90
71843;DHT22;59691;-36.632;-64.320;2023-03-14T06:27:46;25.00;85.00
71843;DHT22;59691;-36.632;-64.320;2023-03-14T06:30:13;25.00;85.20
71843;DHT22;59691;-36.632;-64.320;2023-03-14T06:32:39;25.00;86.00
71843;DHT22;59691;-36.632;-64.320;2023-03-14T06:35:06;25.00;85.40
71843;DHT22;59691;-36.632;-64.320;2023-03-14T06:37:32;25.00;85.60
71843;DHT22;59691;-36.632;-64.320;2023-03-14T06:39:58;25.00;85.70
71843;DHT22;59691;-36.632;-64.320;2023-03-14T06:42:25;25.00;85.80
71843;DHT22;59691;-36.632;-64.320;2023-03-14T06:44:51;25.00;85.90
71843;DHT22;59691;-36.632;-64.320;2023-03-14T06:47:17;25.00;86.00
71843;DHT22;59691;-36.632;-64.320;2023-03-14T06:49:44;25.00;86.00
71843;DHT22;59691;-36.632;-64.320;2023-03-14T06:52:10;25.00;86.10
71843;DHT22;59691;-36.632;-64.320;2023-03-14T06:54:36;25.00;86.10
71843;DHT22;59691;-36.632;-64.320;2023-03-14T06:57:03;25.00;86.20
71843;DHT22;59691;-36.632;-64.320;2023-03-14T06:59:29;25.00;86.30
71843;DHT22;59691;-36.632;-64.320;2023-03-14T07:01:55;25.00;86.40
71843;DHT22;59691;-36.632;-64.320;2023-03-14T07:04:21;25.00;86.40
71843;DHT22;59691;-36.632;-64.320;2023-03-14T07:06:48;25.00;86.40
71843;DHT22;59691;-36.632;-64.320;2023-03-14T07:09:14;25.00;86.50
71843;DHT22;59691;-36.632;-64.320;2023-03-14T07:11:43;25.00;86.50
71843;DHT22;59691;-36.632;-64.320;2023-03-14T07:14:09;25.00;86.60
71843;DHT22;59691;-36.632;-64.320;2023-03-14T07:16:36;25.00;86.70
71843;DHT22;59691;-36.632;-64.320;2023-03-14T07:19:02;25.00;86.70
71843;DHT22;59691;-36.632;-64.320;2023-03-14T07:21:28;25.00;86.80
71843;DHT22;59691;-36.632;-64.320;2023-03-14T07:23:55;25.00;86.80
71843;DHT22;59691;-36.632;-64.320;2023-03-14T07:26:21;25.00;86.90
71843;DHT22;59691;-36.632;-64.320;2023-03-14T07:28:47;25.00;86.90
71843;DHT22;59691;-36.632;-64.320;2023-03-14T07:31:14;25.00;86.90
71843;DHT22;59691;-36.632;-64.320;2023-03-14T07:33:40;25.00;86.90
71843;DHT22;59691;-36.632;-64.320;2023-03-14T07:36:07;24.90;86.90
71843;DHT22;59691;-36.632;-64.320;2023-03-14T07:38:33;25.00;86.90
71843;DHT22;59691;-36.632;-64.320;2023-03-14T07:41:00;25.00;87.00
71843;DHT22;59691;-36.632;-64.320;2023-03-14T07:43:26;24.90;86.90
71843;DHT22;59691;-36.632;-64.320;2023-03-14T07:45:53;25.00;87.00
71843;DHT22;59691;-36.632;-64.320;2023-03-14T07:48:20;24.90;87.00
71843;DHT22;59691;-36.632;-64.320;2023-03-14T07:50:51;24.90;86.90
71843;DHT22;59691;-36.632;-64.320;2023-03-14T07:53:18;24.90;87.00
71843;DHT22;59691;-36.632;-64.320;2023-03-14T07:55:44;24.90;87.00
71843;DHT22;59691;-36.632;-64.320;2023-03-14T07:58:11;24.90;87.00
71843;DHT22;59691;-36.632;-64.320;2023-03-14T08:00:38;24.90;87.70
71843;DHT22;59691;-36.632;-64.320;2023-03-14T08:03:04;24.90;87.10
71843;DHT22;59691;-36.632;-64.320;2023-03-14T08:05:30;24.90;87.10
71843;DHT22;59691;-36.632;-64.320;2023-03-14T08:07:57;24.90;87.10
71843;DHT22;59691;-36.632;-64.320;2023-03-14T08:10:23;24.90;87.10
71843;DHT22;59691;-36.632;-64.320;2023-03-14T08:12:58;24.90;87.20
71843;DHT22;59691;-36.632;-64.320;2023-03-14T08:15:25;24.90;87.20
71843;DHT22;59691;-36.632;-64.320;2023-03-14T08:17:52;24.90;87.20
71843;DHT22;59691;-36.632;-64.320;2023-03-14T08:20:20;24.90;87.20
71843;DHT22;59691;-36.632;-64.320;2023-03-14T08:22:46;24.90;87.30
71843;DHT22;59691;-36.632;-64.320;2023-03-14T08:25:13;24.90;87.30
71843;DHT22;59691;-36.632;-64.320;2023-03-14T08:27:39;24.90;87.30
71843;DHT22;59691;-36.632;-64.320;2023-03-14T08:30:08;24.90;87.40
71843;DHT22;59691;-36.632;-64.320;2023-03-14T08:32:35;24.80;87.30
71843;DHT22;59691;-36.632;-64.320;2023-03-14T08:35:02;24.90;87.30
71843;DHT22;59691;-36.632;-64.320;2023-03-14T08:37:30;24.80;88.00
71843;DHT22;59691;-36.632;-64.320;2023-03-14T08:39:56;24.90;87.40
71843;DHT22;59691;-36.632;-64.320;2023-03-14T08:42:23;24.90;87.40
71843;DHT22;59691;-36.632;-64.320;2023-03-14T08:44:50;24.80;87.30
71843;DHT22;59691;-36.632;-64.320;2023-03-14T08:47:16;24.80;87.40
71843;DHT22;59691;-36.632;-64.320;2023-03-14T08:49:43;24.80;87.40
71843;DHT22;59691;-36.632;-64.320;2023-03-14T08:52:09;24.90;87.40
71843;DHT22;59691;-36.632;-64.320;2023-03-14T08:54:35;24.80;87.40
71843;DHT22;59691;-36.632;-64.320;2023-03-14T08:57:02;24.80;87.40
71843;DHT22;59691;-36.632;-64.320;2023-03-14T08:59:28;24.80;87.50
71843;DHT22;59691;-36.632;-64.320;2023-03-14T09:01:54;24.80;87.40
71843;DHT22;59691;-36.632;-64.320;2023-03-14T09:04:21;24.80;87.40
71843;DHT22;59691;-36.632;-64.320;2023-03-14T09:06:47;24.80;87.30
71843;DHT22;59691;-36.632;-64.320;2023-03-14T09:09:14;24.80;87.40
71843;DHT22;59691;-36.632;-64.320;2023-03-14T09:11:40;24.80;87.50
71843;DHT22;59691;-36.632;-64.320;2023-03-14T09:14:06;24.80;87.40
71843;DHT22;59691;-36.632;-64.320;2023-03-14T09:16:33;24.80;87.40
71843;DHT22;59691;-36.632;-64.320;2023-03-14T09:18:59;24.80;87.40
71843;DHT22;59691;-36.632;-64.320;2023-03-14T09:21:26;24.80;87.50
71843;DHT22;59691;-36.632;-64.320;2023-03-14T09:23:53;24.70;87.40
71843;DHT22;59691;-36.632;-64.320;2023-03-14T09:26:19;24.70;87.40
71843;DHT22;59691;-36.632;-64.320;2023-03-14T09:28:46;24.70;87.40
71843;DHT22;59691;-36.632;-64.320;2023-03-14T09:31:12;24.70;87.40
71843;DHT22;59691;-36.632;-64.320;2023-03-14T09:33:39;24.70;87.40
71843;DHT22;59691;-36.632;-64.320;2023-03-14T09:36:06;24.70;87.40
71843;DHT22;59691;-36.632;-64.320;2023-03-14T09:38:33;24.70;87.50
71843;DHT22;59691;-36.632;-64.320;2023-03-14T09:41:00;24.70;88.10
71843;DHT22;59691;-36.632;-64.320;2023-03-14T09:43:31;24.70;87.50
71843;DHT22;59691;-36.632;-64.320;2023-03-14T09:46:00;24.70;87.40
71843;DHT22;59691;-36.632;-64.320;2023-03-14T09:48:29;24.70;87.40
71843;DHT22;59691;-36.632;-64.320;2023-03-14T09:50:57;24.70;87.30
71843;DHT22;59691;-36.632;-64.320;2023-03-14T09:53:27;24.70;87.40
71843;DHT22;59691;-36.632;-64.320;2023-03-14T09:55:53;24.70;87.40
71843;DHT22;59691;-36.632;-64.320;2023-03-14T09:58:21;24.60;87.30
71843;DHT22;59691;-36.632;-64.320;2023-03-14T10:00:52;24.70;87.50
71843;DHT22;59691;-36.632;-64.320;2023-03-14T10:05:51;24.70;86.80
71843;DHT22;59691;-36.632;-64.320;2023-03-14T10:08:17;24.60;86.70
71843;DHT22;59691;-36.632;-64.320;2023-03-14T10:10:44;24.60;86.70
71843;DHT22;59691;-36.632;-64.320;2023-03-14T10:15:46;24.60;86.70
71843;DHT22;59691;-36.632;-64.320;2023-03-14T10:18:13;24.60;86.70
71843;DHT22;59691;-36.632;-64.320;2023-03-14T10:20:41;24.60;86.70
71843;DHT22;59691;-36.632;-64.320;2023-03-14T10:25:38;24.60;86.70
71843;DHT22;59691;-36.632;-64.320;2023-03-14T10:28:04;24.60;86.70
71843;DHT22;59691;-36.632;-64.320;2023-03-14T10:32:57;24.60;86.70
71843;DHT22;59691;-36.632;-64.320;2023-03-14T10:35:33;24.60;86.70
71843;DHT22;59691;-36.632;-64.320;2023-03-14T10:40:59;24.60;86.70
71843;DHT22;59691;-36.632;-64.320;2023-03-14T10:43:20;24.60;86.70
71843;DHT22;59691;-36.632;-64.320;2023-03-14T10:48:33;24.60;86.70
71843;DHT22;59691;-36.632;-64.320;2023-03-14T10:53:40;24.50;86.70
71843;DHT22;59691;-36.632;-64.320;2023-03-14T10:56:07;24.50;86.70
71843;DHT22;59691;-36.632;-64.320;2023-03-14T10:58:35;24.50;86.60
71843;DHT22;59691;-36.632;-64.320;2023-03-14T11:01:11;24.50;86.90
71843;DHT22;59691;-36.632;-64.320;2023-03-14T11:03:41;24.50;89.50
71843;DHT22;59691;-36.632;-64.320;2023-03-14T11:06:19;24.50;90.60
71843;DHT22;59691;-36.632;-64.320;2023-03-14T11:08:53;24.40;91.10
71843;DHT22;59691;-36.632;-64.320;2023-03-14T11:11:25;24.40;91.50
71843;DHT22;59691;-36.632;-64.320;2023-03-14T11:14:08;24.40;91.70
71843;DHT22;59691;-36.632;-64.320;2023-03-14T11:19:28;24.40;92.30
71843;DHT22;59691;-36.632;-64.320;2023-03-14T11:21:59;24.50;92.50
71843;DHT22;59691;-36.632;-64.320;2023-03-14T11:29:40;24.50;92.80
71843;DHT22;59691;-36.632;-64.320;2023-03-14T11:32:12;24.50;92.90
71843;DHT22;59691;-36.632;-64.320;2023-03-14T11:34:44;24.60;93.10
71843;DHT22;59691;-36.632;-64.320;2023-03-14T11:39:46;24.60;93.30
71843;DHT22;59691;-36.632;-64.320;2023-03-14T11:42:17;24.60;93.40
71843;DHT22;59691;-36.632;-64.320;2023-03-14T11:44:44;24.60;93.50
71843;DHT22;59691;-36.632;-64.320;2023-03-14T11:47:14;24.70;93.70
71843;DHT22;59691;-36.632;-64.320;2023-03-14T11:52:28;24.80;93.50
71843;DHT22;59691;-36.632;-64.320;2023-03-14T11:57:22;24.80;93.70
71843;DHT22;59691;-36.632;-64.320;2023-03-14T12:00:05;24.80;93.70
71843;DHT22;59691;-36.632;-64.320;2023-03-14T12:02:51;24.80;93.80
71843;DHT22;59691;-36.632;-64.320;2023-03-14T12:10:14;24.90;93.80
71843;DHT22;59691;-36.632;-64.320;2023-03-14T12:12:40;24.90;93.90
71843;DHT22;59691;-36.632;-64.320;2023-03-14T12:15:15;24.90;93.90
71843;DHT22;59691;-36.632;-64.320;2023-03-14T12:17:43;24.90;93.90
71843;DHT22;59691;-36.632;-64.320;2023-03-14T12:20:17;24.90;94.00
71843;DHT22;59691;-36.632;-64.320;2023-03-14T12:22:48;25.00;94.00
71843;DHT22;59691;-36.632;-64.320;2023-03-14T12:25:16;25.00;94.00
71843;DHT22;59691;-36.632;-64.320;2023-03-14T12:35:41;25.00;94.10
71843;DHT22;59691;-36.632;-64.320;2023-03-14T12:43:42;25.10;94.00
71843;DHT22;59691;-36.632;-64.320;2023-03-14T12:48:47;25.10;94.00
71843;DHT22;59691;-36.632;-64.320;2023-03-14T12:56:40;25.10;94.10
71843;DHT22;59691;-36.632;-64.320;2023-03-14T13:07:35;25.00;94.10
71843;DHT22;59691;-36.632;-64.320;2023-03-14T13:12:29;25.00;94.20
71843;DHT22;59691;-36.632;-64.320;2023-03-14T13:14:58;25.00;94.20
71843;DHT22;59691;-36.632;-64.320;2023-03-14T13:17:32;25.00;94.20
71843;DHT22;59691;-36.632;-64.320;2023-03-14T13:20:10;25.00;94.10
71843;DHT22;59691;-36.632;-64.320;2023-03-14T13:22:39;25.00;94.00
71843;DHT22;59691;-36.632;-64.320;2023-03-14T13:25:11;25.00;93.90
71843;DHT22;59691;-36.632;-64.320;2023-03-14T13:30:23;25.00;93.80
71843;DHT22;59691;-36.632;-64.320;2023-03-14T13:32:50;25.00;93.80
71843;DHT22;59691;-36.632;-64.320;2023-03-14T13:35:18;25.00;93.80
71843;DHT22;59691;-36.632;-64.320;2023-03-14T13:37:51;25.00;93.70
71843;DHT22;59691;-36.632;-64.320;2023-03-14T13:40:25;25.10;93.70
71843;DHT22;59691;-36.632;-64.320;2023-03-14T13:43:02;25.00;93.50
71843;DHT22;59691;-36.632;-64.320;2023-03-14T13:45:29;25.10;93.50
71843;DHT22;59691;-36.632;-64.320;2023-03-14T13:47:55;25.10;93.40
71843;DHT22;59691;-36.632;-64.320;2023-03-14T13:50:22;25.10;93.40
71843;DHT22;59691;-36.632;-64.320;2023-03-14T13:52:54;25.10;93.30
71843;DHT22;59691;-36.632;-64.320;2023-03-14T13:55:21;25.10;93.30
71843;DHT22;59691;-36.632;-64.320;2023-03-14T13:57:53;25.10;93.20
71843;DHT22;59691;-36.632;-64.320;2023-03-14T14:00:24;25.10;93.30
71843;DHT22;59691;-36.632;-64.320;2023-03-14T14:02:56;25.10;93.30
71843;DHT22;59691;-36.632;-64.320;2023-03-14T14:05:25;25.20;93.30
71843;DHT22;59691;-36.632;-64.320;2023-03-14T14:07:52;25.20;93.30
71843;DHT22;59691;-36.632;-64.320;2023-03-14T14:10:20;25.20;93.20
71843;DHT22;59691;-36.632;-64.320;2023-03-14T14:15:17;25.20;93.10
71843;DHT22;59691;-36.632;-64.320;2023-03-14T14:17:46;25.30;93.10
71843;DHT22;59691;-36.632;-64.320;2023-03-14T14:20:22;25.30;93.00
71843;DHT22;59691;-36.632;-64.320;2023-03-14T14:22:49;25.30;93.00
71843;DHT22;59691;-36.632;-64.320;2023-03-14T14:25:16;25.30;93.00
71843;DHT22;59691;-36.632;-64.320;2023-03-14T14:27:43;25.40;92.90
71843;DHT22;59691;-36.632;-64.320;2023-03-14T14:32:49;25.40;92.80
71843;DHT22;59691;-36.632;-64.320;2023-03-14T14:35:22;25.40;92.70
71843;DHT22;59691;-36.632;-64.320;2023-03-14T14:37:49;25.50;92.70
71843;DHT22;59691;-36.632;-64.320;2023-03-14T14:40:18;25.50;92.60
71843;DHT22;59691;-36.632;-64.320;2023-03-14T14:42:45;25.50;92.60
71843;DHT22;59691;-36.632;-64.320;2023-03-14T14:45:22;25.50;92.50
71843;DHT22;59691;-36.632;-64.320;2023-03-14T14:47:50;25.60;92.50
71843;DHT22;59691;-36.632;-64.320;2023-03-14T14:50:39;25.60;92.40
71843;DHT22;59691;-36.632;-64.320;2023-03-14T14:53:20;25.60;92.30
71843;DHT22;59691;-36.632;-64.320;2023-03-14T14:55:50;25.60;92.30
71843;DHT22;59691;-36.632;-64.320;2023-03-14T14:58:27;25.60;92.20
71843;DHT22;59691;-36.632;-64.320;2023-03-14T15:03:26;25.60;92.20
71843;DHT22;59691;-36.632;-64.320;2023-03-14T15:05:54;25.60;92.20
71843;DHT22;59691;-36.632;-64.320;2023-03-14T15:08:24;25.60;92.40
71843;DHT22;59691;-36.632;-64.320;2023-03-14T15:10:57;25.60;92.50
71843;DHT22;59691;-36.632;-64.320;2023-03-14T15:15:53;25.60;92.70
71843;DHT22;59691;-36.632;-64.320;2023-03-14T15:18:24;25.60;93.20
71843;DHT22;59691;-36.632;-64.320;2023-03-14T15:20:51;25.70;93.30
71843;DHT22;59691;-36.632;-64.320;2023-03-14T15:23:19;25.80;93.90
71843;DHT22;59691;-36.632;-64.320;2023-03-14T15:25:46;25.90;93.80
71843;DHT22;59691;-36.632;-64.320;2023-03-14T15:28:21;26.00;93.60
71843;DHT22;59691;-36.632;-64.320;2023-03-14T15:30:49;26.00;93.50
71843;DHT22;59691;-36.632;-64.320;2023-03-14T15:33:17;25.90;93.40
71843;DHT22;59691;-36.632;-64.320;2023-03-14T15:35:45;25.90;93.20
71843;DHT22;59691;-36.632;-64.320;2023-03-14T15:38:12;25.90;93.20
71843;DHT22;59691;-36.632;-64.320;2023-03-14T15:40:38;25.90;93.10
71843;DHT22;59691;-36.632;-64.320;2023-03-14T15:43:05;25.90;93.20
71843;DHT22;59691;-36.632;-64.320;2023-03-14T15:45:33;25.90;93.10
71843;DHT22;59691;-36.632;-64.320;2023-03-14T15:47:59;25.90;93.20
71843;DHT22;59691;-36.632;-64.320;2023-03-14T15:50:26;25.90;93.20
71843;DHT22;59691;-36.632;-64.320;2023-03-14T15:52:52;25.90;93.30
71843;DHT22;59691;-36.632;-64.320;2023-03-14T15:55:18;26.00;93.50
71843;DHT22;59691;-36.632;-64.320;2023-03-14T15:57:45;26.00;93.60
71843;DHT22;59691;-36.632;-64.320;2023-03-14T16:00:12;26.00;93.50
71843;DHT22;59691;-36.632;-64.320;2023-03-14T16:02:40;26.00;93.50
71843;DHT22;59691;-36.632;-64.320;2023-03-14T16:05:08;26.10;93.50
71843;DHT22;59691;-36.632;-64.320;2023-03-14T16:07:34;26.10;93.40
71843;DHT22;59691;-36.632;-64.320;2023-03-14T16:10:01;26.10;93.30
71843;DHT22;59691;-36.632;-64.320;2023-03-14T16:12:27;26.10;93.30
71843;DHT22;59691;-36.632;-64.320;2023-03-14T16:17:20;26.20;93.10
71843;DHT22;59691;-36.632;-64.320;2023-03-14T16:19:46;26.20;93.10
71843;DHT22;59691;-36.632;-64.320;2023-03-14T16:22:12;26.20;93.00
71843;DHT22;59691;-36.632;-64.320;2023-03-14T16:24:39;26.30;93.00
71843;DHT22;59691;-36.632;-64.320;2023-03-14T16:27:05;26.30;93.00
71843;DHT22;59691;-36.632;-64.320;2023-03-14T16:29:32;26.30;92.90
71843;DHT22;59691;-36.632;-64.320;2023-03-14T16:31:58;26.40;92.90
71843;DHT22;59691;-36.632;-64.320;2023-03-14T16:34:24;26.40;92.80
71843;DHT22;59691;-36.632;-64.320;2023-03-14T16:36:51;26.40;92.70